Time;durP1;ratioP1;P1;durP2;ratioP2;P2;SDS_P1;SDS_P2;PMS_P1;PMS_P2;Temp;Humidity;BMP_temperature;BMP_pressure;BME280_temperature;BME280_humidity;BME280_pressure;Samples;Min_cycle;Max_cycle;Signal;HPM_P1;HPM_P2
2022/08/08 00:01:21;;;;;;;22.05;12.82;;;20.10;99.90;;;;;;5059346;28;20072;-73
2022/08/08 00:03:59;;;;;;;17.60;11.45;;;20.00;99.90;;;;;;5066681;28;20044;-75
2022/08/08 00:06:38;;;;;;;13.40;12.10;;;20.00;99.90;;;;;;5066366;28;20045;-75
2022/08/08 00:09:12;;;;;;;13.88;11.65;;;20.00;99.90;;;;;;5060749;28;20427;-74
2022/08/08 00:11:42;;;;;;;12.75;11.38;;;20.00;99.90;;;;;;5052929;28;20052;-74
2022/08/08 00:14:19;;;;;;;12.98;11.27;;;20.00;99.90;;;;;;5052875;28;20125;-74
2022/08/08 00:16:53;;;;;;;13.52;10.68;;;19.90;99.90;;;;;;5053022;28;20095;-75
2022/08/08 00:19:26;;;;;;;13.73;11.20;;;19.80;99.90;;;;;;5053091;28;20080;-75
2022/08/08 00:21:59;;;;;;;14.85;11.45;;;19.90;99.90;;;;;;5054157;28;20071;-75
2022/08/08 00:24:32;;;;;;;21.10;10.70;;;19.90;99.90;;;;;;5056702;28;20095;-74
2022/08/08 00:27:05;;;;;;;14.35;10.52;;;19.80;99.90;;;;;;5056353;28;20036;-75
2022/08/08 00:29:38;;;;;;;14.55;11.68;;;19.80;99.90;;;;;;5055658;28;20053;-75
2022/08/08 00:32:13;;;;;;;15.98;12.07;;;19.80;99.90;;;;;;5056770;28;20045;-74
2022/08/08 00:35:11;;;;;;;13.20;11.80;;;19.70;99.90;;;;;;5056467;28;20114;-75
2022/08/08 00:37:57;;;;;;;13.50;11.50;;;19.70;99.90;;;;;;5055316;28;20048;-75
2022/08/08 00:40:42;;;;;;;;;;;19.70;99.90;;;;;;5056841;28;20049;-75
2022/08/08 00:43:43;;;;;;;14.52;11.13;;;19.70;99.90;;;;;;5054965;28;19921;-74
2022/08/08 00:46:46;;;;;;;13.52;12.13;;;19.60;99.90;;;;;;5051681;28;20068;-76
2022/08/08 00:49:42;;;;;;;15.70;11.77;;;19.60;99.90;;;;;;5053980;28;20061;-75
2022/08/08 00:52:29;;;;;;;17.80;13.48;;;19.60;99.90;;;;;;5056091;28;20036;-75
2022/08/08 00:55:08;;;;;;;;;;;19.50;99.90;;;;;;5060341;28;20040;-74
2022/08/08 00:58:16;;;;;;;15.63;13.18;;;19.50;99.90;;;;;;5063896;28;19951;-74
2022/08/08 01:00:55;;;;;;;16.50;11.82;;;19.40;99.90;;;;;;5055381;28;20045;-75
2022/08/08 01:04:12;;;;;;;15.43;13.10;;;19.30;99.90;;;;;;5058625;28;20055;-75
2022/08/08 01:07:24;;;;;;;18.17;13.45;;;19.20;99.90;;;;;;5055516;28;20048;-75
2022/08/08 01:10:26;;;;;;;15.18;13.48;;;19.20;99.90;;;;;;5009232;28;20064;-74
2022/08/08 01:13:33;;;;;;;15.07;12.82;;;19.10;99.90;;;;;;5054450;28;20416;-73
2022/08/08 01:16:26;;;;;;;15.63;13.57;;;19.20;99.90;;;;;;5033229;28;20132;-73
2022/08/08 01:19:28;;;;;;;17.63;13.32;;;19.20;99.90;;;;;;5028174;28;20060;-73
2022/08/08 01:22:27;;;;;;;15.52;13.25;;;19.10;99.90;;;;;;5020577;28;20116;-73
2022/08/08 01:25:29;;;;;;;15.93;14.25;;;19.00;99.90;;;;;;5055985;28;20072;-74
2022/08/08 01:28:11;;;;;;;21.98;15.00;;;18.90;99.90;;;;;;5053522;28;20076;-74
2022/08/08 01:31:23;;;;;;;17.15;14.20;;;18.80;99.90;;;;;;5093314;28;20044;-73
2022/08/08 01:34:24;;;;;;;17.27;14.02;;;18.80;99.90;;;;;;5096086;28;20102;-74
2022/08/08 01:37:32;;;;;;;19.25;14.90;;;18.80;99.90;;;;;;5087226;28;20049;-74
2022/08/08 01:40:23;;;;;;;17.70;13.55;;;18.80;99.90;;;;;;5060055;28;20045;-73
2022/08/08 01:42:58;;;;;;;20.33;14.02;;;18.80;99.90;;;;;;5058011;28;20519;-74
2022/08/08 01:45:45;;;;;;;18.33;14.10;;;18.80;99.90;;;;;;5059466;28;20041;-74
2022/08/08 01:48:20;;;;;;;17.30;13.27;;;18.80;99.90;;;;;;5072431;28;20072;-73
2022/08/08 01:51:02;;;;;;;14.38;12.65;;;18.90;99.90;;;;;;5071570;28;20504;-73
2022/08/08 01:53:46;;;;;;;16.20;12.90;;;18.80;99.90;;;;;;5072880;28;20103;-74
2022/08/08 01:56:26;;;;;;;17.25;13.18;;;18.90;99.90;;;;;;5055515;28;20069;-74
2022/08/08 01:59:08;;;;;;;14.98;11.60;;;18.90;99.90;;;;;;5034173;28;20081;-75
2022/08/08 02:01:59;;;;;;;15.68;12.35;;;18.80;99.90;;;;;;5033826;28;20050;-74
2022/08/08 02:04:37;;;;;;;15.68;12.40;;;18.80;99.90;;;;;;5041107;28;20499;-74
2022/08/08 02:07:11;;;;;;;19.65;14.20;;;18.80;99.90;;;;;;5053658;28;20419;-73
2022/08/08 02:09:55;;;;;;;20.55;14.90;;;18.70;99.90;;;;;;5053356;28;20070;-74
2022/08/08 02:12:28;;;;;;;18.50;14.32;;;18.60;99.90;;;;;;5053690;28;20095;-74
2022/08/08 02:15:03;;;;;;;18.23;14.20;;;18.60;99.90;;;;;;5053074;28;20063;-74
2022/08/08 02:17:46;;;;;;;14.25;12.75;;;18.60;99.90;;;;;;5053125;28;20144;-74
2022/08/08 02:20:27;;;;;;;15.88;13.20;;;18.60;99.90;;;;;;5052959;28;20130;-74
2022/08/08 02:23:09;;;;;;;14.60;13.10;;;18.60;99.90;;;;;;5052559;28;20049;-74
2022/08/08 02:25:45;;;;;;;15.27;11.98;;;18.60;99.90;;;;;;5053229;28;20493;-74
2022/08/08 02:28:19;;;;;;;14.30;12.13;;;18.60;99.90;;;;;;5053076;28;20099;-74
2022/08/08 02:30:58;;;;;;;13.85;12.05;;;18.60;99.90;;;;;;5073085;28;20446;-74
2022/08/08 02:33:42;;;;;;;15.57;12.00;;;18.50;99.90;;;;;;5073055;28;20068;-75
2022/08/08 02:36:37;;;;;;;15.40;12.32;;;18.50;99.90;;;;;;5088515;28;20035;-74
2022/08/08 02:39:45;;;;;;;15.52;12.38;;;18.50;99.90;;;;;;5098659;28;20041;-74
2022/08/08 02:43:05;;;;;;;15.50;12.43;;;18.50;99.90;;;;;;5074600;28;20056;-74
2022/08/08 02:46:06;;;;;;;18.58;13.35;;;18.50;99.90;;;;;;5072509;28;20074;-74
2022/08/08 02:49:00;;;;;;;18.35;12.70;;;18.40;99.90;;;;;;5050766;28;20099;-75
2022/08/08 02:51:57;;;;;;;16.40;13.65;;;18.40;99.90;;;;;;5050168;28;20045;-75
2022/08/08 02:54:49;;;;;;;16.33;13.02;;;18.40;99.90;;;;;;5065651;28;20511;-75
2022/08/08 02:58:04;;;;;;;16.52;13.05;;;18.30;99.90;;;;;;5058640;28;20049;-75
2022/08/08 03:00:54;;;;;;;17.73;12.68;;;18.30;99.90;;;;;;5052754;28;20463;-76
2022/08/08 03:03:56;;;;;;;13.30;12.00;;;18.30;99.90;;;;;;5052245;28;20106;-75
2022/08/08 03:06:49;;;;;;;15.13;12.48;;;18.30;99.90;;;;;;5052178;28;20041;-75
2022/08/08 03:09:57;;;;;;;15.80;12.73;;;18.30;99.90;;;;;;5010523;28;20114;-75
2022/08/08 03:12:56;;;;;;;14.10;12.18;;;18.30;99.90;;;;;;5052681;28;20049;-75
2022/08/08 03:16:08;;;;;;;13.88;12.45;;;18.30;99.90;;;;;;5051993;28;20043;-75
2022/08/08 03:18:49;;;;;;;13.25;11.85;;;18.30;99.90;;;;;;5053136;28;20072;-74
2022/08/08 03:21:16;;;;;;;16.23;11.70;;;18.10;99.90;;;;;;5051872;28;20400;-74
2022/08/08 03:23:47;;;;;;;15.73;12.80;;;18.10;99.90;;;;;;5051950;28;20423;-75
2022/08/08 03:26:26;;;;;;;17.95;14.20;;;18.00;99.90;;;;;;5052496;28;20094;-74
2022/08/08 03:28:59;;;;;;;16.13;12.93;;;18.00;99.90;;;;;;5056947;28;20410;-75
2022/08/08 03:34:15;;;;;;;20.35;14.93;;;18.00;99.90;;;;;;5072167;28;20521;-75
2022/08/08 03:36:43;;;;;;;19.25;15.30;;;18.00;99.90;;;;;;5073961;28;20044;-74
2022/08/08 03:39:13;;;;;;;21.30;14.98;;;17.90;99.90;;;;;;5072971;28;20044;-74
2022/08/08 03:41:42;;;;;;;19.25;14.23;;;18.00;99.90;;;;;;5072718;28;20044;-75
2022/08/08 03:44:11;;;;;;;15.57;13.55;;;18.00;99.90;;;;;;5072496;28;20499;-74
2022/08/08 03:46:46;;;;;;;15.38;13.07;;;18.10;99.90;;;;;;5074283;28;20041;-75
2022/08/08 03:49:18;;;;;;;21.13;15.15;;;18.10;99.90;;;;;;5075244;28;20075;-75
2022/08/08 03:51:51;;;;;;;18.92;13.95;;;18.10;99.90;;;;;;5077039;28;20049;-75
2022/08/08 03:54:21;;;;;;;17.40;13.43;;;18.20;99.90;;;;;;5082985;28;20053;-74
2022/08/08 03:56:48;;;;;;;20.52;13.65;;;18.20;99.90;;;;;;5088031;28;20048;-75
2022/08/08 03:59:18;;;;;;;14.45;11.88;;;18.30;99.90;;;;;;5095198;28;20044;-75
2022/08/08 04:01:45;;;;;;;20.33;13.52;;;18.30;99.90;;;;;;5093392;28;20036;-74
2022/08/08 04:04:19;;;;;;;20.00;14.13;;;18.40;99.90;;;;;;5092068;28;20184;-75
2022/08/08 04:06:56;;;;;;;19.17;14.02;;;18.40;99.90;;;;;;5095669;28;20109;-74
2022/08/08 04:09:28;;;;;;;16.92;14.05;;;18.40;99.90;;;;;;5094552;28;20060;-76
2022/08/08 04:11:55;;;;;;;17.73;13.63;;;18.50;99.90;;;;;;5094403;28;20075;-75
2022/08/08 04:14:24;;;;;;;18.77;13.35;;;18.60;99.90;;;;;;5093458;28;20577;-74
2022/08/08 04:16:51;;;;;;;17.13;13.48;;;18.90;99.90;;;;;;5092476;28;20102;-74
2022/08/08 04:19:19;;;;;;;21.38;14.77;;;19.30;99.90;;;;;;5092479;28;20056;-75
2022/08/08 04:21:47;;;;;;;16.10;13.73;;;19.50;99.90;;;;;;5092479;28;20041;-75
2022/08/08 04:24:15;;;;;;;21.23;13.45;;;19.70;99.90;;;;;;5089757;28;20055;-75
2022/08/08 04:26:43;;;;;;;21.23;12.95;;;20.10;99.90;;;;;;5090273;28;20068;-75
2022/08/08 04:29:11;;;;;;;17.67;13.88;;;20.40;99.90;;;;;;5082335;28;20041;-75
2022/08/08 04:31:38;;;;;;;18.80;13.23;;;20.80;99.90;;;;;;5069716;28;20077;-75
2022/08/08 04:34:06;;;;;;;20.10;12.77;;;21.00;99.90;;;;;;5069498;28;20053;-75
2022/08/08 04:36:33;;;;;;;21.40;12.07;;;21.20;99.90;;;;;;5067537;28;20112;-75
2022/08/08 04:39:02;;;;;;;18.88;12.43;;;21.40;99.90;;;;;;5062423;28;20045;-75
2022/08/08 04:41:29;;;;;;;18.48;12.27;;;21.70;99.90;;;;;;5056573;28;20049;-76
2022/08/08 04:43:58;;;;;;;20.10;13.80;;;22.10;99.90;;;;;;5061550;28;20059;-75
2022/08/08 04:46:26;;;;;;;19.60;13.02;;;22.10;99.90;;;;;;5062797;28;20053;-74
2022/08/08 04:48:53;;;;;;;17.70;13.10;;;22.00;99.90;;;;;;5061998;28;20411;-76
2022/08/08 04:51:20;;;;;;;19.42;13.82;;;21.80;99.90;;;;;;5060543;28;20434;-75
2022/08/08 04:53:48;;;;;;;16.88;12.52;;;21.50;99.90;;;;;;5064247;28;20473;-74
2022/08/08 04:56:16;;;;;;;16.35;12.65;;;21.50;99.90;;;;;;5064767;28;20538;-74
2022/08/08 04:58:44;;;;;;;15.65;11.98;;;21.40;99.90;;;;;;5071000;28;20063;-74
2022/08/08 05:01:14;;;;;;;14.50;12.10;;;21.40;99.90;;;;;;5066013;28;20136;-75
2022/08/08 05:03:44;;;;;;;14.55;11.50;;;21.40;99.90;;;;;;5055788;28;20045;-75
2022/08/08 05:06:12;;;;;;;14.90;11.65;;;21.50;99.90;;;;;;5055696;28;21367;-75
2022/08/08 05:08:39;;;;;;;16.20;12.02;;;21.50;99.90;;;;;;5056005;28;20052;-75
2022/08/08 05:11:08;;;;;;;20.13;13.15;;;21.50;99.90;;;;;;5057185;28;20041;-76
2022/08/08 05:13:35;;;;;;;14.48;12.48;;;21.60;99.90;;;;;;5055353;28;20075;-74
2022/08/08 05:16:03;;;;;;;15.80;13.20;;;21.70;99.90;;;;;;5054741;28;20135;-75
2022/08/08 05:18:32;;;;;;;17.42;13.88;;;21.80;99.90;;;;;;5055512;28;20086;-74
2022/08/08 05:21:00;;;;;;;17.75;14.18;;;21.80;99.90;;;;;;5057681;28;20045;-76
2022/08/08 05:23:27;;;;;;;20.65;15.25;;;21.90;99.90;;;;;;5058785;28;20060;-75
2022/08/08 05:25:55;;;;;;;18.13;13.32;;;21.90;99.90;;;;;;5057766;28;20045;-74
2022/08/08 05:28:22;;;;;;;16.75;13.88;;;22.00;99.90;;;;;;5056522;28;20052;-74
2022/08/08 05:30:49;;;;;;;20.70;12.27;;;22.10;99.90;;;;;;5034933;28;20057;-76
2022/08/08 05:33:18;;;;;;;19.13;14.88;;;22.20;99.90;;;;;;5034868;28;20539;-76
2022/08/08 05:35:49;;;;;;;18.85;13.55;;;22.70;99.90;;;;;;5034945;28;20110;-75
2022/08/08 05:38:18;;;;;;;24.35;12.48;;;23.00;99.90;;;;;;5034976;28;20074;-75
2022/08/08 05:40:52;;;;;;;18.13;14.45;;;23.10;99.90;;;;;;5035731;28;20049;-75
2022/08/08 05:43:25;;;;;;;17.88;14.05;;;23.30;99.90;;;;;;5034563;28;20099;-75
2022/08/08 05:45:57;;;;;;;17.42;13.57;;;23.80;99.90;;;;;;5035399;28;20049;-75
2022/08/08 05:48:25;;;;;;;18.23;13.18;;;24.30;99.90;;;;;;5036318;28;20052;-76
2022/08/08 05:50:54;;;;;;;16.90;14.00;;;24.80;99.90;;;;;;5034895;28;20172;-75
2022/08/08 05:53:24;;;;;;;16.45;14.70;;;25.10;99.90;;;;;;5043049;28;20045;-75
2022/08/08 05:55:55;;;;;;;17.77;12.48;;;25.40;99.90;;;;;;5055110;28;20072;-75
2022/08/08 05:58:27;;;;;;;18.30;14.88;;;25.70;99.90;;;;;;5054420;28;20055;-76
2022/08/08 06:00:56;;;;;;;23.58;16.70;;;25.40;99.90;;;;;;5054685;28;20420;-76
2022/08/08 06:03:24;;;;;;;20.90;15.02;;;25.60;99.90;;;;;;5054167;28;20370;-75
2022/08/08 06:05:57;;;;;;;16.65;14.50;;;25.80;99.90;;;;;;5055409;28;20128;-75
2022/08/08 06:08:26;;;;;;;19.95;15.77;;;26.10;99.90;;;;;;5054959;28;20049;-75
2022/08/08 06:10:58;;;;;;;21.55;14.35;;;26.40;99.90;;;;;;5054714;28;20055;-75
2022/08/08 06:13:28;;;;;;;25.20;16.33;;;26.60;99.90;;;;;;5053719;28;20041;-75
2022/08/08 06:15:56;;;;;;;17.83;13.95;;;26.50;99.90;;;;;;5053290;28;20099;-74
2022/08/08 06:18:45;;;;;;;22.10;17.00;;;26.60;99.90;;;;;;5031508;28;20507;-75
2022/08/08 06:21:16;;;;;;;19.88;14.32;;;26.90;99.90;;;;;;5053108;28;20408;-75
2022/08/08 06:23:44;;;;;;;23.80;13.65;;;27.10;99.90;;;;;;5053449;28;20102;-75
2022/08/08 06:26:12;;;;;;;17.60;13.98;;;27.30;99.90;;;;;;5053053;28;20037;-75
2022/08/08 06:28:47;;;;;;;20.35;14.98;;;27.30;99.90;;;;;;5055248;28;20072;-75
2022/08/08 06:31:20;;;;;;;23.38;15.02;;;27.20;99.90;;;;;;5073804;28;20423;-76
2022/08/08 06:33:54;;;;;;;16.90;14.30;;;27.30;99.90;;;;;;5073334;28;20044;-75
2022/08/08 06:36:31;;;;;;;15.67;13.87;;;27.20;99.90;;;;;;5070066;28;20044;-75
2022/08/08 06:39:00;;;;;;;16.65;13.75;;;27.20;99.90;;;;;;5054575;28;20385;-76
2022/08/08 06:41:32;;;;;;;16.50;13.63;;;27.20;99.90;;;;;;5051969;28;20094;-75
2022/08/08 06:44:03;;;;;;;18.95;13.90;;;27.50;99.90;;;;;;5053387;28;20136;-76
2022/08/08 06:46:36;;;;;;;17.98;13.52;;;27.70;99.90;;;;;;5053528;28;20037;-75
2022/08/08 06:49:04;;;;;;;18.10;13.23;;;27.70;99.90;;;;;;5053660;28;20095;-76
2022/08/08 06:51:35;;;;;;;25.25;13.95;;;27.90;99.90;;;;;;5063622;28;20183;-74
2022/08/08 06:54:03;;;;;;;17.65;15.30;;;27.80;99.90;;;;;;5056789;28;20049;-75
2022/08/08 06:56:36;;;;;;;22.02;15.30;;;27.70;99.90;;;;;;5052442;28;20033;-76
2022/08/08 06:59:06;;;;;;;22.25;15.25;;;28.00;99.90;;;;;;5052198;28;20047;-75
2022/08/08 07:01:38;;;;;;;20.00;16.80;;;28.20;99.90;;;;;;5052859;28;20143;-76
2022/08/08 07:04:15;;;;;;;20.25;14.85;;;28.30;99.90;;;;;;5055644;28;20064;-76
2022/08/08 07:06:52;;;;;;;30.42;16.58;;;28.30;99.90;;;;;;5077061;28;20039;-75
2022/08/08 07:09:21;;;;;;;17.83;13.10;;;28.30;99.90;;;;;;5076052;28;20035;-76
2022/08/08 07:11:54;;;;;;;16.27;12.30;;;28.30;99.90;;;;;;5066622;28;20073;-76
2022/08/08 07:14:30;;;;;;;21.08;12.65;;;28.20;99.90;;;;;;5054311;28;20124;-75
2022/08/08 07:17:03;;;;;;;17.83;13.90;;;27.90;99.90;;;;;;5053804;28;20045;-75
2022/08/08 07:19:38;;;;;;;16.92;13.60;;;27.70;99.90;;;;;;5053801;28;20045;-76
2022/08/08 07:22:08;;;;;;;16.67;12.90;;;27.60;99.90;;;;;;5053007;28;20053;-75
2022/08/08 07:24:43;;;;;;;15.43;13.45;;;27.40;99.90;;;;;;5053520;28;20056;-76
2022/08/08 07:27:13;;;;;;;16.67;12.73;;;27.70;99.90;;;;;;5056283;28;20079;-74
2022/08/08 07:29:41;;;;;;;16.88;13.48;;;27.90;99.90;;;;;;5064604;28;20542;-75
2022/08/08 07:32:10;;;;;;;16.38;13.85;;;28.50;99.90;;;;;;5073514;28;20094;-74
2022/08/08 07:34:38;;;;;;;21.27;17.83;;;28.70;99.90;;;;;;5058941;28;20060;-75
2022/08/08 07:37:13;;;;;;;16.88;14.35;;;28.80;99.90;;;;;;5053273;28;20045;-73
2022/08/08 07:39:45;;;;;;;16.25;13.50;;;29.10;99.90;;;;;;5052514;28;20380;-75
2022/08/08 07:42:13;;;;;;;18.77;14.02;;;29.10;99.90;;;;;;5054261;28;20044;-74
2022/08/08 07:44:42;;;;;;;22.30;14.75;;;29.40;99.90;;;;;;5052801;28;20056;-75
2022/08/08 07:47:11;;;;;;;16.77;14.90;;;29.50;99.90;;;;;;5060595;28;20068;-75
2022/08/08 07:49:41;;;;;;;15.75;13.77;;;29.60;99.90;;;;;;5064554;28;20068;-75
2022/08/08 07:52:14;;;;;;;18.98;14.57;;;29.60;99.90;;;;;;5053533;28;20140;-76
2022/08/08 07:54:48;;;;;;;22.02;14.93;;;29.40;99.90;;;;;;5053703;28;20514;-77
2022/08/08 07:57:23;;;;;;;19.42;16.55;;;29.40;99.90;;;;;;5049798;28;20049;-75
2022/08/08 08:00:01;;;;;;;19.95;13.88;;;29.50;99.90;;;;;;5054035;28;20136;-76
2022/08/08 08:02:39;;;;;;;18.45;13.52;;;29.50;99.90;;;;;;5054252;28;20396;-77
2022/08/08 08:05:20;;;;;;;14.63;13.07;;;29.50;99.90;;;;;;5053170;28;20071;-74
2022/08/08 08:07:54;;;;;;;15.73;12.13;;;29.50;99.90;;;;;;5055137;28;20508;-77
2022/08/08 08:10:28;;;;;;;18.50;14.27;;;29.60;99.90;;;;;;5072242;28;20044;-76
2022/08/08 08:13:19;;;;;;;16.90;14.05;;;29.70;99.90;;;;;;5054940;28;20045;-75
2022/08/08 08:15:54;;;;;;;12.95;11.65;;;29.70;99.90;;;;;;5051432;28;20062;-76
2022/08/08 08:18:23;;;;;;;14.30;11.68;;;29.30;99.90;;;;;;5064991;28;20076;-75
2022/08/08 08:20:53;;;;;;;18.20;12.68;;;29.00;99.90;;;;;;5056378;28;20496;-75
2022/08/08 08:23:22;;;;;;;20.52;12.90;;;29.40;99.90;;;;;;5053036;28;20488;-75
2022/08/08 08:25:50;;;;;;;16.08;14.23;;;29.70;99.90;;;;;;5053881;28;20041;-76
2022/08/08 08:28:18;;;;;;;14.80;11.00;;;29.60;99.90;;;;;;5053507;28;20114;-76
2022/08/08 08:30:45;;;;;;;14.75;10.65;;;29.50;99.90;;;;;;5074046;28;20067;-75
2022/08/08 08:33:13;;;;;;;12.50;11.20;;;29.20;99.90;;;;;;5072560;28;20098;-75
2022/08/08 08:35:41;;;;;;;13.48;11.63;;;29.30;99.90;;;;;;5072948;28;20097;-76
2022/08/08 08:38:09;;;;;;;14.00;11.10;;;29.30;99.90;;;;;;5051756;28;20040;-75
2022/08/08 08:40:38;;;;;;;17.08;10.85;;;29.70;99.90;;;;;;5065466;28;20052;-75
2022/08/08 08:43:06;;;;;;;15.68;11.35;;;29.90;99.90;;;;;;5062734;28;20053;-76
2022/08/08 08:45:35;;;;;;;15.80;13.68;;;30.00;99.90;;;;;;5060965;28;20112;-75
2022/08/08 08:48:05;;;;;;;14.30;11.95;;;30.30;99.90;;;;;;5072186;28;20067;-75
2022/08/08 08:50:38;;;;;;;16.17;11.48;;;30.50;99.90;;;;;;5070421;28;20072;-76
2022/08/08 08:53:12;;;;;;;16.33;10.35;;;30.70;99.90;;;;;;5071426;28;20107;-76
2022/08/08 08:55:43;;;;;;;13.55;10.57;;;30.30;99.90;;;;;;5073696;28;20052;-76
2022/08/08 08:58:20;;;;;;;11.85;10.65;;;30.00;99.90;;;;;;5065895;28;20049;-76
2022/08/08 09:00:48;;;;;;;14.32;10.52;;;30.20;99.90;;;;;;5065327;28;20053;-76
2022/08/08 09:03:16;;;;;;;15.98;11.07;;;30.30;99.90;;;;;;5056333;28;20047;-75
2022/08/08 09:05:45;;;;;;;14.23;10.98;;;30.30;99.90;;;;;;5057690;28;20143;-76
2022/08/08 09:08:15;;;;;;;15.50;11.43;;;30.60;99.90;;;;;;5071870;28;20140;-76
2022/08/08 09:10:44;;;;;;;14.43;11.80;;;31.10;99.90;;;;;;5066226;28;20462;-75
2022/08/08 09:13:13;;;;;;;14.55;10.77;;;31.50;99.90;;;;;;5056258;28;20053;-75
2022/08/08 09:15:42;;;;;;;16.60;10.73;;;31.60;99.90;;;;;;5056810;28;20045;-75
2022/08/08 09:18:11;;;;;;;15.75;11.80;;;32.00;99.60;;;;;;5058867;28;20033;-76
2022/08/08 09:20:39;;;;;;;17.05;11.38;;;32.20;98.70;;;;;;5057339;28;20095;-77
2022/08/08 09:23:08;;;;;;;11.38;9.98;;;32.60;97.50;;;;;;5060983;28;20078;-77
2022/08/08 09:25:37;;;;;;;10.32;9.07;;;32.60;97.00;;;;;;5074981;28;20079;-76
2022/08/08 09:28:06;;;;;;;12.13;9.70;;;31.80;97.40;;;;;;5058592;28;20049;-75
2022/08/08 09:30:38;;;;;;;12.23;8.88;;;31.20;98.10;;;;;;5059854;28;20041;-75
2022/08/08 09:33:06;;;;;;;11.55;7.22;;;31.40;97.50;;;;;;5057055;28;20573;-76
2022/08/08 09:35:34;;;;;;;10.73;7.88;;;31.60;97.40;;;;;;5056993;28;20045;-77
2022/08/08 09:38:03;;;;;;;9.02;8.00;;;31.50;96.70;;;;;;5056229;28;20083;-75
2022/08/08 09:40:36;;;;;;;10.70;7.65;;;32.10;96.10;;;;;;5056992;28;20055;-76
2022/08/08 09:43:19;;;;;;;12.10;7.65;;;32.00;96.60;;;;;;5056660;28;20420;-76
2022/08/08 09:45:54;;;;;;;10.57;8.10;;;31.90;96.30;;;;;;5055482;28;20049;-76
2022/08/08 09:48:22;;;;;;;9.18;8.00;;;32.20;95.50;;;;;;5046038;28;20049;-76
2022/08/08 09:50:51;;;;;;;12.20;9.80;;;32.40;94.70;;;;;;5057168;28;20102;-75
2022/08/08 09:53:20;;;;;;;13.55;7.30;;;32.80;93.70;;;;;;5055652;28;20067;-75
2022/08/08 09:55:48;;;;;;;10.73;7.53;;;33.20;92.30;;;;;;5050593;28;20138;-76
2022/08/08 09:58:19;;;;;;;14.55;7.10;;;33.50;91.50;;;;;;5055581;28;20029;-76
2022/08/08 10:00:48;;;;;;;9.93;6.43;;;33.50;88.80;;;;;;5054071;28;20053;-77
2022/08/08 10:03:17;;;;;;;14.82;10.07;;;33.20;87.80;;;;;;5053607;28;20492;-76
2022/08/08 10:05:47;;;;;;;12.18;8.70;;;33.10;87.80;;;;;;5054712;28;20053;-74
2022/08/08 10:08:17;;;;;;;11.57;6.50;;;32.90;87.80;;;;;;5055121;28;20053;-78
2022/08/08 10:10:45;;;;;;;10.18;7.50;;;32.80;87.20;;;;;;5058065;28;20075;-76
2022/08/08 10:13:23;;;;;;;15.20;8.52;;;32.70;87.50;;;;;;5058770;28;20119;-78
2022/08/08 10:15:52;;;;;;;10.95;6.65;;;32.50;88.40;;;;;;5056565;28;20044;-76
2022/08/08 10:18:27;;;;;;;23.02;7.15;;;32.60;87.70;;;;;;5058607;28;20037;-76
2022/08/08 10:21:01;;;;;;;12.27;7.38;;;32.50;87.20;;;;;;5057887;28;20041;-76
2022/08/08 10:23:43;;;;;;;10.98;6.93;;;32.50;87.30;;;;;;5053022;28;20072;-76
2022/08/08 10:26:16;;;;;;;12.90;9.18;;;32.60;87.20;;;;;;5054494;28;20053;-76
2022/08/08 10:28:55;;;;;;;10.95;7.25;;;32.60;87.20;;;;;;5055470;28;20040;-75
2022/08/08 10:34:09;;;;;;;;;;;32.00;88.70;;;;;;5055674;28;20465;-77
2022/08/08 10:36:38;;;;;;;11.13;7.10;;;31.90;89.60;;;;;;5055099;28;19925;-75
2022/08/08 10:39:08;;;;;;;12.00;7.07;;;32.00;89.10;;;;;;5054539;28;20124;-77
2022/08/08 10:41:37;;;;;;;11.57;7.60;;;31.90;89.40;;;;;;5055251;28;20045;-76
2022/08/08 10:44:10;;;;;;;8.70;6.40;;;31.70;89.60;;;;;;5060688;28;20040;-76
2022/08/08 10:46:38;;;;;;;12.50;7.60;;;31.60;90.00;;;;;;5053238;28;20095;-75
2022/08/08 10:49:05;;;;;;;11.20;7.80;;;31.40;90.40;;;;;;5064709;28;20040;-76
2022/08/08 10:51:37;;;;;;;13.35;7.22;;;31.60;90.20;;;;;;5074152;28;20044;-78
2022/08/08 10:54:04;;;;;;;12.45;6.93;;;31.70;90.00;;;;;;5055237;28;20053;-77
2022/08/08 10:56:34;;;;;;;11.85;6.05;;;31.90;89.50;;;;;;5052803;28;20045;-77
2022/08/08 10:59:02;;;;;;;10.93;6.10;;;32.10;88.40;;;;;;5066839;28;20105;-78
2022/08/08 11:01:31;;;;;;;9.02;6.40;;;31.90;88.30;;;;;;5059796;28;20070;-77
2022/08/08 11:04:00;;;;;;;9.65;6.40;;;32.00;88.30;;;;;;5061291;28;20041;-77
2022/08/08 11:06:32;;;;;;;7.65;5.88;;;31.60;88.80;;;;;;5068855;28;20036;-75
2022/08/08 11:09:04;;;;;;;10.13;6.13;;;31.30;88.60;;;;;;5058823;28;20048;-77
2022/08/08 11:11:38;;;;;;;9.10;6.60;;;31.20;89.60;;;;;;5055872;28;20104;-79
2022/08/08 11:14:06;;;;;;;15.80;6.30;;;31.10;90.00;;;;;;5053161;28;20052;-77
2022/08/08 11:16:36;;;;;;;9.45;6.00;;;31.10;89.60;;;;;;5055154;28;20075;-79
2022/08/08 11:19:06;;;;;;;15.77;7.30;;;31.10;89.50;;;;;;5056488;28;20113;-76
2022/08/08 11:21:39;;;;;;;10.95;6.40;;;31.10;89.80;;;;;;5054421;28;20045;-78
2022/08/08 11:24:08;;;;;;;8.27;6.03;;;31.20;88.90;;;;;;5054871;28;20076;-76
2022/08/08 11:26:39;;;;;;;10.48;6.65;;;31.30;88.90;;;;;;5054374;28;20068;-76
2022/08/08 11:29:08;;;;;;;10.38;6.68;;;31.20;88.70;;;;;;5061764;28;20086;-77
2022/08/08 11:31:40;;;;;;;10.52;5.57;;;31.20;88.60;;;;;;5063685;28;20526;-76
2022/08/08 11:34:08;;;;;;;8.35;5.82;;;31.20;88.40;;;;;;5053345;28;20045;-78
2022/08/08 11:36:38;;;;;;;8.65;5.47;;;31.30;89.10;;;;;;5054385;28;20080;-76
2022/08/08 11:39:07;;;;;;;8.82;5.18;;;31.50;88.40;;;;;;5052140;28;20041;-77
2022/08/08 11:41:36;;;;;;;13.13;6.22;;;31.50;88.30;;;;;;5055369;28;20108;-80
2022/08/08 11:44:04;;;;;;;8.63;5.63;;;31.40;88.10;;;;;;5055762;28;20088;-78
2022/08/08 11:46:33;;;;;;;7.45;5.63;;;31.40;88.10;;;;;;5056683;28;20057;-77
2022/08/08 11:49:07;;;;;;;10.23;6.07;;;31.40;87.80;;;;;;5064326;28;20032;-78
2022/08/08 11:51:35;;;;;;;9.75;6.85;;;31.30;87.20;;;;;;5065289;28;20060;-78
2022/08/08 11:54:02;;;;;;;9.40;6.03;;;31.20;87.80;;;;;;5070519;28;20114;-76
2022/08/08 11:56:34;;;;;;;9.02;5.55;;;31.30;87.70;;;;;;5058457;28;20076;-76
2022/08/08 11:59:06;;;;;;;9.38;5.93;;;31.60;87.40;;;;;;5059344;28;20033;-77
2022/08/08 12:01:34;;;;;;;10.18;5.93;;;31.40;87.20;;;;;;5054201;28;20069;-75
2022/08/08 12:04:04;;;;;;;9.32;5.65;;;31.30;87.20;;;;;;5054482;28;20072;-76
2022/08/08 12:06:32;;;;;;;8.38;5.95;;;31.20;87.50;;;;;;5055800;28;20492;-75
2022/08/08 12:09:06;;;;;;;7.47;5.38;;;31.00;88.10;;;;;;5054796;28;20037;-77
2022/08/08 12:11:39;;;;;;;11.40;5.70;;;30.80;87.80;;;;;;5057316;28;20041;-78
2022/08/08 12:14:06;;;;;;;9.13;5.45;;;30.70;87.90;;;;;;5055592;28;20048;-77
2022/08/08 12:16:34;;;;;;;12.80;5.68;;;30.60;88.90;;;;;;5055501;28;20037;-77
2022/08/08 12:19:10;;;;;;;11.48;5.65;;;30.60;88.00;;;;;;5058050;28;20044;-78
2022/08/08 12:21:38;;;;;;;11.10;5.18;;;30.60;88.60;;;;;;5057597;28;20041;-75
2022/08/08 12:24:07;;;;;;;9.57;5.63;;;30.50;88.50;;;;;;5058979;28;20033;-78
2022/08/08 12:26:40;;;;;;;13.23;6.55;;;30.50;88.70;;;;;;5058849;28;20103;-77
2022/08/08 12:29:27;;;;;;;11.25;6.75;;;30.60;89.40;;;;;;5058081;28;20411;-77
2022/08/08 12:32:02;;;;;;;8.88;5.47;;;30.40;89.40;;;;;;5057948;28;20087;-77
2022/08/08 12:34:42;;;;;;;7.93;5.57;;;30.40;88.70;;;;;;5056674;28;20045;-77
2022/08/08 12:37:12;;;;;;;9.35;5.22;;;30.50;89.00;;;;;;5057756;28;20124;-77
2022/08/08 12:39:39;;;;;;;8.75;5.07;;;30.60;88.50;;;;;;5057723;28;20120;-77
2022/08/08 12:42:07;;;;;;;7.93;5.50;;;30.90;87.60;;;;;;5057171;28;20060;-78
2022/08/08 12:44:35;;;;;;;6.68;5.65;;;31.20;86.30;;;;;;5057782;28;20049;-78
2022/08/08 12:47:04;;;;;;;9.85;6.47;;;31.20;85.80;;;;;;5057701;28;20467;-78
2022/08/08 12:49:35;;;;;;;11.43;5.72;;;31.20;86.60;;;;;;5056021;28;20061;-77
2022/08/08 12:52:05;;;;;;;8.18;5.85;;;31.30;86.80;;;;;;5048927;28;20098;-77
2022/08/08 12:54:35;;;;;;;6.22;5.45;;;31.30;86.00;;;;;;5057304;28;20399;-79
2022/08/08 12:57:13;;;;;;;7.50;5.40;;;31.30;86.10;;;;;;5057195;28;20094;-78
2022/08/08 12:59:50;;;;;;;10.10;5.68;;;31.50;86.10;;;;;;5039861;28;20041;-76
2022/08/08 13:02:25;;;;;;;9.85;5.65;;;31.30;86.10;;;;;;5067832;28;20037;-76
2022/08/08 13:04:54;;;;;;;10.85;5.82;;;31.40;86.50;;;;;;5057806;28;20044;-80
2022/08/08 13:07:34;;;;;;;9.25;5.95;;;31.30;86.70;;;;;;5057968;28;20105;-78
2022/08/08 13:10:03;;;;;;;10.18;5.90;;;31.30;87.00;;;;;;5070596;28;20044;-79
2022/08/08 13:12:38;;;;;;;8.98;5.57;;;31.40;85.50;;;;;;5069953;28;20049;-78
2022/08/08 13:15:12;;;;;;;12.40;5.95;;;31.30;85.10;;;;;;5057868;28;20047;-77
2022/08/08 13:17:40;;;;;;;11.35;6.50;;;31.10;86.20;;;;;;5057712;28;20048;-78